Station SWXA2 - Seward Harbor, AK Image indicating link to RSS feed of recent meteorological observations for station SWXA2


Conditions at SWXA2 as of
(11:52 am AKDT)
1952 GMT on 08/31/2026:
     

Click on the graph icon in the table below to see a time series plot of the last five days of that observation.

5-day plot - Wind Direction Wind Direction (WDIR):NNW ( 340 deg true )
5-day plot - Wind Speed Wind Speed (WSPD): 21.0 kts
5-day plot - Wind Gust Wind Gust (GST): 36.9 kts
5-day plot - Atmospheric Pressure Atmospheric Pressure (PRES):29.46 in
5-day plot - Air Temperature Air Temperature (ATMP): 51.1 °F
5-day plot - Dew Point Dew Point (DEWP): 32.5 °F
5-day plot - Wind Chill Wind Chill (CHILL): 44.2 °F
5-day plot - Wind Speed at 10 Meters Wind Speed at 10 meters (WSPD10M): 21.4 kts
5-day plot - Wind Speed at 20 Meters Wind Speed at 20 meters (WSPD20M): 23.3 kts
5-day plot -  Wind Speed, Wind Gust and Atmospheric Pressure Combined plot of Wind Speed, Gust, and Air Pressure
Previous observations
TIME
(AKDT)
5-day plot - Wind Direction
WDIR
 
5-day plot - Wind Speed
WSPD
kts
5-day plot - Wind Gust
GST
kts
5-day plot - Wave Height
WVHT
ft
5-day plot - Dominant Wave Period
DPD
sec
5-day plot - Average Wave Period
APD
sec
5-day plot - Mean Wave Direction
MWD
 
5-day plot - Atmospheric Pressure
PRES
in
5-day plot - Pressure Tendency
PTDY
in
5-day plot - Air Temperature
ATMP
°F
5-day plot - Water Temperature
WTMP
°F
5-day plot - Dew Point
DEWP
°F
5-day plot - Salinity
SAL
psu
5-day plot - Visibility
VIS
nmi
5-day plot - Tide (above MLLW)
TIDE
ft
2026-08-31 11:42 amNNW 22.0 35.0----29.46- 50.9- 32.9---
2026-08-31 11:32 amNNW 19.0 32.1----29.46- 51.1- 33.1---
2026-08-31 11:22 amNNW 20.0 35.9----29.46- 51.3- 31.6---
2026-08-31 11:12 amNNW 19.0 31.1----29.46- 51.4- 31.3---
2026-08-31 11:02 amNNW 19.0 35.9----29.47- 51.3- 31.1---
2026-08-31 10:52 amNNW 21.0 35.9----29.47- 51.1- 31.5---
2026-08-31 10:42 am N 19.0 41.0----29.47- 50.9- 33.8---
2026-08-31 10:32 amNNW 17.1 29.9----29.48- 51.1- 33.6---
2026-08-31 10:22 amNNW 17.1 31.1----29.48- 50.9- 33.8---
2026-08-31 10:12 amNNW 14.0 24.1----29.49- 50.9- 35.2---
2026-08-31 10:02 amNNW 14.0 25.1----29.49- 51.1- 34.0---
2026-08-31 09:52 am NW 15.0 26.0----29.49- 50.7- 36.0---
2026-08-31 09:42 amNNW 17.1 29.9----29.50- 50.4- 38.3---
2026-08-31 09:32 am N 15.0 25.1----29.50- 48.4- 40.8---
2026-08-31 09:22 am N 17.1 26.0----29.49- 50.4- 40.3---
2026-08-31 09:12 am N 17.1 34.0----29.49- 51.6- 39.0---
2026-08-31 09:02 am N 13.0 29.9----29.50- 51.6- 38.7---
2026-08-31 08:52 am N 13.0 29.9----29.49- 51.3- 39.0---
2026-08-31 08:42 am N 9.9 21.0----29.49- 50.2- 39.2---
2026-08-31 08:32 amNNE 7.0 11.1----29.50- 48.4- 40.5---
2026-08-31 08:22 am N 6.0 8.9----29.51- 47.7- 41.5---
2026-08-31 08:12 amNNW 5.1 8.0----29.52- 46.8- 42.3---
2026-08-31 08:02 am N 5.1 8.9----29.52- 46.8- 42.4---
2026-08-31 07:52 am N 8.9 13.0----29.52- 47.5- 42.6---
2026-08-31 07:42 am N 15.0 28.0----29.53- 48.7- 40.8---
2026-08-31 07:32 am N 20.0 31.1----29.52- 49.6- 41.0---
2026-08-31 07:22 amNNW 12.0 29.9----29.52- 52.0- 41.4---
2026-08-31 07:12 am N 6.0 15.9----29.52- 47.7- 42.4---
2026-08-31 07:02 am NW 1.0 2.9----29.52- 46.4- 42.4---
2026-08-31 06:52 am NW 1.9 4.1----29.51- 46.6- 42.6---
2026-08-31 06:42 amWNW 2.9 5.1----29.51- 46.6- 42.3---
2026-08-31 06:32 am E 1.9 4.1----29.52- 46.6- 42.6---
2026-08-31 06:22 amNNW 2.9 6.0----29.52- 46.4- 41.9---
2026-08-31 06:12 amNNW 2.9 5.1----29.53- 46.2- 41.9---
2026-08-31 06:02 amNNW 2.9 6.0----29.53- 46.9- 42.1---
2026-08-31 05:52 amNNW 4.1 6.0----29.54- 47.3- 42.4---
2026-08-31 05:42 amWNW 2.9 7.0----29.54- 47.5- 42.6---
2026-08-31 05:32 amNNW 1.0 1.9----29.54- 47.3- 42.6---
2026-08-31 05:22 am NW 1.0 6.0----29.55- 46.8- 42.4---
2026-08-31 05:12 amNNW 4.1 6.0----29.55- 46.8- 42.4---
2026-08-31 05:02 am NW 1.9 4.1----29.56- 47.3- 42.6---
2026-08-31 04:52 am W 1.9 2.9----29.57- 47.1- 42.8---
2026-08-31 04:42 am N 1.9 4.1----29.57- 47.5- 42.8---
2026-08-31 04:32 am N 1.9 4.1----29.58- 47.7- 43.0---
2026-08-31 04:22 am N 1.9 4.1----29.58- 48.2- 43.0---
2026-08-31 04:12 am N 2.9 6.0----29.58- 48.9- 43.3---
2026-08-31 04:02 am E 2.9 5.1----29.58- 49.5- 43.5---
2026-08-31 03:52 am W 1.9 4.1----29.59- 48.7- 43.5---
2026-08-31 03:42 am NW 2.9 5.1----29.59- 48.7- 43.2---
2026-08-31 03:32 amNNE 2.9 6.0----29.59- 48.7- 43.2---
2026-08-31 03:22 am NW 1.9 5.1----29.59- 49.3- 43.7---
2026-08-31 03:12 amNNW 2.9 5.1----29.59- 49.3- 43.3---
2026-08-31 03:02 am NW 2.9 5.1----29.60- 49.3- 43.3---
2026-08-31 02:52 amNNW 2.9 5.1----29.60- 49.5- 43.5---
2026-08-31 02:42 amNNW 2.9 4.1----29.61- 49.5- 43.9---
2026-08-31 02:32 amNNW 2.9 6.0----29.60- 49.6- 44.1---
2026-08-31 02:22 amNNW 4.1 6.0----29.61- 50.0- 44.1---
2026-08-31 02:12 amNNW 5.1 7.0----29.60- 50.2- 44.2---
2026-08-31 02:02 amNNW 5.1 6.0----29.61- 50.7- 44.4---
2026-08-31 01:52 am NW 4.1 6.0----29.62- 51.1- 44.1---
2026-08-31 01:42 amNNW 5.1 8.0----29.62- 51.4- 44.4---
2026-08-31 01:32 amNNW 5.1 8.0----29.62- 51.8- 44.8---
2026-08-31 01:22 amNNW 5.1 8.9----29.63- 53.6- 44.4---
2026-08-31 01:12 am NW 5.1 8.0----29.63- 54.0- 44.4---
2026-08-31 01:02 am NW 5.1 8.0----29.63- 54.3- 44.4---
2026-08-31 12:52 am NW 5.1 8.9----29.64- 54.3- 44.4---
2026-08-31 12:42 am NW 4.1 7.0----29.64- 54.3- 44.8---
2026-08-31 12:32 amNNW 4.1 5.1----29.65- 54.5- 45.0---
2026-08-31 12:22 am NW 4.1 6.0----29.65- 54.7- 44.8---
2026-08-31 12:12 amNNW 5.1 8.0----29.65- 54.7- 45.1---
2026-08-31 12:02 amNNW 5.1 8.9----29.66- 54.7- 45.1---
2026-08-30 11:52 pm N 5.1 8.9----29.66- 55.0- 45.0---
2026-08-30 11:42 pm N 5.1 9.9----29.66- 55.4- 45.0---
2026-08-30 11:32 pm N 5.1 8.0----29.66- 55.8- 45.0---
2026-08-30 11:22 pm N 7.0 9.9----29.66- 56.3- 44.6---
2026-08-30 11:12 pm N 7.0 12.0----29.67- 56.3- 44.6---
2026-08-30 11:02 pm N 7.0 12.0----29.67- 56.5- 44.4---
2026-08-30 10:52 pmNNW 6.0 19.0----29.67- 58.3- 44.1---
2026-08-30 10:42 pmWNW 11.1 20.0----29.67- 59.0- 42.8---
2026-08-30 10:32 pmWNW 12.0 20.0----29.66- 59.2- 43.0---
2026-08-30 10:22 pmWNW 13.0 22.0----29.66- 59.2- 43.0---
2026-08-30 10:12 pmWNW 11.1 22.0----29.67- 59.4- 43.2---
2026-08-30 10:02 pmWNW 13.0 22.9----29.67- 59.5- 42.8---
2026-08-30 09:52 pmWNW 14.0 22.0----29.67- 59.7- 42.6---
2026-08-30 09:42 pmWNW 15.0 26.0----29.67- 59.7- 42.6---
2026-08-30 09:32 pmWNW 13.0 21.0----29.67- 60.3- 41.5---
2026-08-30 09:22 pmWNW 11.1 19.0----29.68- 60.6- 40.8---
2026-08-30 09:12 pm NW 11.1 19.0----29.69- 60.4- 41.2---
2026-08-30 09:02 pm N 7.0 13.0----29.69- 60.1- 41.4---
2026-08-30 08:52 pm N 6.0 11.1----29.69- 59.7- 42.6---
2026-08-30 08:42 pmNNE 7.0 11.1----29.69- 59.2- 43.0---
2026-08-30 08:32 pm N 5.1 8.9----29.69- 59.5- 43.3---
2026-08-30 08:22 pm N 7.0 13.0----29.70- 59.5- 43.3---
2026-08-30 08:12 pmNNE 8.9 13.0----29.70- 59.9- 42.8---
2026-08-30 08:02 pmNNE 5.1 11.1----29.70- 59.9- 43.2---
2026-08-30 07:52 pm NW 8.0 15.0----29.70- 61.5- 40.5---
2026-08-30 07:42 pmWNW 8.9 18.1----29.70- 61.5- 40.5---
2026-08-30 07:32 pm NW 8.0 15.9----29.70- 61.7- 40.6---
2026-08-30 07:22 pm-------29.71- 61.7- 40.1---
2026-08-30 07:02 pmWNW 11.1 19.0------------
2026-08-30 06:52 pmWNW 14.0 27.0----29.72- 62.6- 39.7---
2026-08-30 06:42 pm NW 14.0 22.9----29.73- 62.2- 40.6---
2026-08-30 06:32 pm NW 14.0 22.9----29.73- 62.6- 39.7---
2026-08-30 06:22 pmWNW 11.1 21.0----29.74- 62.4- 41.4---
2026-08-30 06:12 pmWNW 9.9 18.1----29.74- 62.8- 40.5---
2026-08-30 06:02 pmWNW 8.9 15.9----29.75- 63.0- 41.4---
2026-08-30 05:52 pmWNW 13.0 22.0----29.75- 63.0- 40.1---
2026-08-30 05:42 pmWNW 8.0 15.9----29.76- 63.3- 40.5---
2026-08-30 05:32 pm NW 8.9 19.0----29.76- 63.5- 39.9---
2026-08-30 05:22 pm NW 11.1 19.0----29.76- 63.9- 39.7---
2026-08-30 05:12 pm NW 12.0 19.0----29.76- 64.0- 39.2---
2026-08-30 05:02 pm NW 13.0 21.0----29.77- 64.2- 39.4---
2026-08-30 04:52 pm NW 13.0 21.0----29.77- 64.2- 38.7---
2026-08-30 04:42 pm NW 13.0 22.0----29.77- 64.8- 37.9---
2026-08-30 04:32 pm NW 9.9 15.9----29.78- 65.1- 38.1---
2026-08-30 04:22 pmNNW 8.9 18.1----29.77- 65.1- 37.4---
2026-08-30 04:12 pmNNW 9.9 18.1----29.78- 65.3- 37.6---
2026-08-30 04:02 pmNNW 9.9 19.0----29.77- 65.3- 38.3---
2026-08-30 03:52 pmNNW 8.9 17.1----29.78- 65.5- 37.8---
2026-08-30 03:42 pmNNW 6.0 11.1----29.78- 65.8- 38.1---
2026-08-30 03:32 pmNNW 4.1 7.0----29.79- 66.0- 39.0---
2026-08-30 03:22 pm NW 4.1 8.0----29.79- 66.0- 39.0---
2026-08-30 03:12 pm N 6.0 12.0----29.80- 65.8- 38.8---
2026-08-30 03:02 pmNNW 6.0 11.1----29.80- 65.8- 38.8---
2026-08-30 02:52 pm N 6.0 12.0----29.80- 65.8- 38.8---
2026-08-30 02:42 pmNNW 8.0 14.0----29.80- 65.7- 38.7---
2026-08-30 02:32 pmNNW 8.9 17.1----29.80- 65.7- 38.7---
2026-08-30 02:22 pmNNW 8.9 15.9----29.81- 65.5- 38.5---
2026-08-30 02:12 pmNNW 8.0 13.0----29.81- 65.5- 38.5---
2026-08-30 02:02 pm N 8.9 15.0----29.81- 65.3- 38.3---
2026-08-30 01:52 pm N 7.0 12.0----29.81- 65.7- 38.7---
2026-08-30 01:42 pm N 8.0 15.0----29.82- 65.5- 38.5---
2026-08-30 01:32 pm N 7.0 13.0----29.82- 65.5- 38.5---
2026-08-30 01:22 pm N 8.9 15.0----29.82- 65.3- 38.3---
2026-08-30 01:12 pm N 7.0 15.0----29.82- 64.9- 38.7---
2026-08-30 01:02 pmNNE 9.9 15.9----29.83- 64.8- 38.5---
2026-08-30 12:52 pm N 9.9 19.0----29.83- 64.2- 40.1---
2026-08-30 12:42 pm N 8.9 15.9----29.83- 64.9- 39.4---
2026-08-30 12:32 pm N 8.9 13.0----29.83- 64.4- 40.8---
2026-08-30 12:22 pm N 9.9 18.1----29.84- 64.4- 39.6---
2026-08-30 12:12 pmNNW 8.9 17.1----29.84- 64.6- 40.3---
2026-08-30 12:02 pmNNW 8.0 15.9----29.84- 63.9- 41.0---
2026-08-30 11:52 am NW 11.1 20.0----29.84- 63.7- 39.6---